sensor_id;sensor_type;location;lat;lon;timestamp;P1;durP1;ratioP1;P2;durP2;ratioP2
26838;SDS011;40088;51.214;6.786;2023-09-19T00:06:29;9.57;;;4.70;;
26838;SDS011;40088;51.214;6.786;2023-09-19T00:16:31;6.65;;;3.55;;
26838;SDS011;40088;51.214;6.786;2023-09-19T00:26:32;8.60;;;4.20;;
26838;SDS011;40088;51.214;6.786;2023-09-19T00:36:34;7.50;;;3.35;;
26838;SDS011;40088;51.214;6.786;2023-09-19T00:46:34;9.77;;;3.65;;
26838;SDS011;40088;51.214;6.786;2023-09-19T00:56:35;6.45;;;2.65;;
26838;SDS011;40088;51.214;6.786;2023-09-19T01:06:38;8.77;;;2.47;;
26838;SDS011;40088;51.214;6.786;2023-09-19T01:37:20;6.43;;;2.42;;
26838;SDS011;40088;51.214;6.786;2023-09-19T01:47:32;9.48;;;2.63;;
26838;SDS011;40088;51.214;6.786;2023-09-19T01:57:40;11.30;;;2.70;;
26838;SDS011;40088;51.214;6.786;2023-09-19T02:07:49;7.57;;;2.60;;
26838;SDS011;40088;51.214;6.786;2023-09-19T02:17:50;5.40;;;2.27;;
26838;SDS011;40088;51.214;6.786;2023-09-19T02:27:51;9.40;;;2.58;;
26838;SDS011;40088;51.214;6.786;2023-09-19T02:37:54;6.70;;;2.83;;
26838;SDS011;40088;51.214;6.786;2023-09-19T02:47:54;7.13;;;2.85;;
26838;SDS011;40088;51.214;6.786;2023-09-19T02:57:55;10.93;;;3.20;;
26838;SDS011;40088;51.214;6.786;2023-09-19T03:07:57;10.60;;;2.30;;
26838;SDS011;40088;51.214;6.786;2023-09-19T03:18:00;10.00;;;3.15;;
26838;SDS011;40088;51.214;6.786;2023-09-19T03:28:01;6.80;;;2.70;;
26838;SDS011;40088;51.214;6.786;2023-09-19T03:38:05;6.75;;;2.58;;
26838;SDS011;40088;51.214;6.786;2023-09-19T03:48:09;8.43;;;3.00;;
26838;SDS011;40088;51.214;6.786;2023-09-19T03:58:10;9.10;;;2.83;;
26838;SDS011;40088;51.214;6.786;2023-09-19T04:08:11;10.40;;;3.17;;
26838;SDS011;40088;51.214;6.786;2023-09-19T04:18:11;9.35;;;2.70;;
26838;SDS011;40088;51.214;6.786;2023-09-19T04:28:12;7.60;;;2.60;;
26838;SDS011;40088;51.214;6.786;2023-09-19T04:38:13;6.85;;;2.65;;
26838;SDS011;40088;51.214;6.786;2023-09-19T04:48:15;7.40;;;2.77;;
26838;SDS011;40088;51.214;6.786;2023-09-19T04:58:16;9.13;;;2.88;;
26838;SDS011;40088;51.214;6.786;2023-09-19T05:08:17;7.03;;;2.70;;
26838;SDS011;40088;51.214;6.786;2023-09-19T05:18:18;7.97;;;2.97;;
26838;SDS011;40088;51.214;6.786;2023-09-19T05:28:19;6.83;;;3.13;;
26838;SDS011;40088;51.214;6.786;2023-09-19T05:38:19;8.43;;;3.00;;
26838;SDS011;40088;51.214;6.786;2023-09-19T05:48:20;11.20;;;2.88;;
26838;SDS011;40088;51.214;6.786;2023-09-19T05:58:21;10.00;;;3.47;;
26838;SDS011;40088;51.214;6.786;2023-09-19T06:08:21;8.53;;;2.53;;
26838;SDS011;40088;51.214;6.786;2023-09-19T06:18:22;8.85;;;3.45;;
26838;SDS011;40088;51.214;6.786;2023-09-19T06:28:26;8.57;;;2.75;;
26838;SDS011;40088;51.214;6.786;2023-09-19T06:38:28;9.48;;;2.60;;
26838;SDS011;40088;51.214;6.786;2023-09-19T06:48:28;8.52;;;3.38;;
26838;SDS011;40088;51.214;6.786;2023-09-19T06:58:33;8.35;;;3.08;;
26838;SDS011;40088;51.214;6.786;2023-09-19T07:08:35;8.25;;;3.10;;
26838;SDS011;40088;51.214;6.786;2023-09-19T07:18:36;9.95;;;2.78;;
26838;SDS011;40088;51.214;6.786;2023-09-19T07:28:37;11.55;;;3.20;;
26838;SDS011;40088;51.214;6.786;2023-09-19T07:38:37;10.77;;;3.28;;
26838;SDS011;40088;51.214;6.786;2023-09-19T07:48:38;11.10;;;2.97;;
26838;SDS011;40088;51.214;6.786;2023-09-19T07:58:41;8.43;;;2.63;;
26838;SDS011;40088;51.214;6.786;2023-09-19T08:08:44;9.30;;;3.35;;
26838;SDS011;40088;51.214;6.786;2023-09-19T08:18:48;8.75;;;3.50;;
26838;SDS011;40088;51.214;6.786;2023-09-19T08:28:53;7.60;;;3.28;;
26838;SDS011;40088;51.214;6.786;2023-09-19T08:38:55;8.83;;;3.50;;
26838;SDS011;40088;51.214;6.786;2023-09-19T08:49:03;12.30;;;3.33;;
26838;SDS011;40088;51.214;6.786;2023-09-19T08:59:07;9.43;;;3.00;;
26838;SDS011;40088;51.214;6.786;2023-09-19T09:09:09;8.20;;;3.28;;
26838;SDS011;40088;51.214;6.786;2023-09-19T09:19:10;11.27;;;3.35;;
26838;SDS011;40088;51.214;6.786;2023-09-19T09:29:13;10.65;;;3.20;;
26838;SDS011;40088;51.214;6.786;2023-09-19T09:39:15;11.50;;;3.35;;
26838;SDS011;40088;51.214;6.786;2023-09-19T09:49:31;6.53;;;2.88;;
26838;SDS011;40088;51.214;6.786;2023-09-19T10:09:47;6.65;;;2.53;;
26838;SDS011;40088;51.214;6.786;2023-09-19T10:29:57;10.43;;;3.38;;
26838;SDS011;40088;51.214;6.786;2023-09-19T10:39:59;7.33;;;2.83;;
26838;SDS011;40088;51.214;6.786;2023-09-19T10:50:00;8.40;;;2.67;;
26838;SDS011;40088;51.214;6.786;2023-09-19T11:00:06;6.73;;;2.73;;
26838;SDS011;40088;51.214;6.786;2023-09-19T11:20:47;9.07;;;3.28;;
26838;SDS011;40088;51.214;6.786;2023-09-19T11:30:51;10.57;;;3.35;;
26838;SDS011;40088;51.214;6.786;2023-09-19T11:41:36;6.93;;;3.20;;
26838;SDS011;40088;51.214;6.786;2023-09-19T11:51:22;10.18;;;3.45;;
26838;SDS011;40088;51.214;6.786;2023-09-19T12:01:31;8.27;;;3.25;;
26838;SDS011;40088;51.214;6.786;2023-09-19T12:11:40;6.20;;;2.80;;
26838;SDS011;40088;51.214;6.786;2023-09-19T12:21:44;6.05;;;2.65;;
26838;SDS011;40088;51.214;6.786;2023-09-19T12:31:55;8.48;;;3.47;;
26838;SDS011;40088;51.214;6.786;2023-09-19T12:41:58;11.40;;;3.60;;
26838;SDS011;40088;51.214;6.786;2023-09-19T12:51:59;9.68;;;3.00;;
26838;SDS011;40088;51.214;6.786;2023-09-19T13:02:04;7.38;;;2.65;;
26838;SDS011;40088;51.214;6.786;2023-09-19T13:33:04;5.32;;;2.85;;
26838;SDS011;40088;51.214;6.786;2023-09-19T13:43:07;6.22;;;2.80;;
26838;SDS011;40088;51.214;6.786;2023-09-19T13:53:08;5.60;;;2.60;;
26838;SDS011;40088;51.214;6.786;2023-09-19T14:03:09;8.40;;;2.30;;
26838;SDS011;40088;51.214;6.786;2023-09-19T14:13:11;6.47;;;2.05;;
26838;SDS011;40088;51.214;6.786;2023-09-19T14:23:13;6.40;;;2.30;;
26838;SDS011;40088;51.214;6.786;2023-09-19T14:33:15;7.53;;;2.75;;
26838;SDS011;40088;51.214;6.786;2023-09-19T14:43:16;9.48;;;2.08;;
26838;SDS011;40088;51.214;6.786;2023-09-19T14:53:16;8.00;;;2.00;;
26838;SDS011;40088;51.214;6.786;2023-09-19T15:03:17;8.37;;;2.03;;
26838;SDS011;40088;51.214;6.786;2023-09-19T15:13:18;10.52;;;2.50;;
26838;SDS011;40088;51.214;6.786;2023-09-19T15:23:19;12.60;;;2.75;;
26838;SDS011;40088;51.214;6.786;2023-09-19T15:33:19;18.73;;;2.60;;
26838;SDS011;40088;51.214;6.786;2023-09-19T15:43:20;16.20;;;2.50;;
26838;SDS011;40088;51.214;6.786;2023-09-19T15:53:21;5.57;;;2.40;;
26838;SDS011;40088;51.214;6.786;2023-09-19T16:03:22;15.83;;;2.47;;
26838;SDS011;40088;51.214;6.786;2023-09-19T16:13:25;17.42;;;2.83;;
26838;SDS011;40088;51.214;6.786;2023-09-19T16:23:27;15.50;;;2.55;;
26838;SDS011;40088;51.214;6.786;2023-09-19T16:33:35;7.20;;;2.40;;
26838;SDS011;40088;51.214;6.786;2023-09-19T16:43:37;8.50;;;2.63;;
26838;SDS011;40088;51.214;6.786;2023-09-19T16:53:38;7.87;;;2.20;;
26838;SDS011;40088;51.214;6.786;2023-09-19T17:03:42;7.00;;;2.92;;
26838;SDS011;40088;51.214;6.786;2023-09-19T17:13:46;4.60;;;2.13;;
26838;SDS011;40088;51.214;6.786;2023-09-19T17:23:49;5.60;;;2.10;;
26838;SDS011;40088;51.214;6.786;2023-09-19T17:33:51;5.30;;;1.50;;
26838;SDS011;40088;51.214;6.786;2023-09-19T17:43:53;5.90;;;2.10;;
26838;SDS011;40088;51.214;6.786;2023-09-19T17:53:55;5.05;;;2.50;;
26838;SDS011;40088;51.214;6.786;2023-09-19T18:04:01;4.90;;;2.33;;
26838;SDS011;40088;51.214;6.786;2023-09-19T18:14:02;3.40;;;2.25;;
26838;SDS011;40088;51.214;6.786;2023-09-19T18:24:03;7.50;;;2.33;;
26838;SDS011;40088;51.214;6.786;2023-09-19T18:34:06;8.98;;;2.00;;
26838;SDS011;40088;51.214;6.786;2023-09-19T18:44:07;6.03;;;2.60;;
26838;SDS011;40088;51.214;6.786;2023-09-19T18:54:08;7.63;;;3.20;;
26838;SDS011;40088;51.214;6.786;2023-09-19T19:04:09;5.65;;;2.50;;
26838;SDS011;40088;51.214;6.786;2023-09-19T19:14:11;6.57;;;2.58;;
26838;SDS011;40088;51.214;6.786;2023-09-19T19:24:12;4.80;;;2.17;;
26838;SDS011;40088;51.214;6.786;2023-09-19T19:34:13;5.40;;;2.30;;
26838;SDS011;40088;51.214;6.786;2023-09-19T19:44:14;4.05;;;2.53;;
26838;SDS011;40088;51.214;6.786;2023-09-19T19:54:15;5.28;;;2.47;;
26838;SDS011;40088;51.214;6.786;2023-09-19T20:04:15;4.32;;;2.10;;
26838;SDS011;40088;51.214;6.786;2023-09-19T20:14:16;4.80;;;2.60;;
26838;SDS011;40088;51.214;6.786;2023-09-19T20:24:16;4.28;;;2.15;;
26838;SDS011;40088;51.214;6.786;2023-09-19T20:34:23;6.13;;;2.78;;
26838;SDS011;40088;51.214;6.786;2023-09-19T20:44:23;6.22;;;2.80;;
26838;SDS011;40088;51.214;6.786;2023-09-19T20:54:26;6.73;;;2.80;;
26838;SDS011;40088;51.214;6.786;2023-09-19T21:04:26;5.93;;;2.45;;
26838;SDS011;40088;51.214;6.786;2023-09-19T21:14:29;4.20;;;2.30;;
26838;SDS011;40088;51.214;6.786;2023-09-19T21:24:31;3.53;;;2.00;;
26838;SDS011;40088;51.214;6.786;2023-09-19T21:34:32;4.40;;;2.10;;
26838;SDS011;40088;51.214;6.786;2023-09-19T21:44:33;4.80;;;2.22;;
26838;SDS011;40088;51.214;6.786;2023-09-19T21:54:34;4.50;;;2.25;;
26838;SDS011;40088;51.214;6.786;2023-09-19T22:04:34;3.23;;;2.23;;
26838;SDS011;40088;51.214;6.786;2023-09-19T22:14:35;4.80;;;2.25;;
26838;SDS011;40088;51.214;6.786;2023-09-19T22:24:35;6.33;;;2.27;;
26838;SDS011;40088;51.214;6.786;2023-09-19T22:34:36;3.97;;;2.42;;
26838;SDS011;40088;51.214;6.786;2023-09-19T22:44:38;5.00;;;2.33;;
26838;SDS011;40088;51.214;6.786;2023-09-19T22:54:41;4.50;;;2.08;;
26838;SDS011;40088;51.214;6.786;2023-09-19T23:04:43;6.57;;;2.63;;
26838;SDS011;40088;51.214;6.786;2023-09-19T23:14:44;5.75;;;3.53;;
26838;SDS011;40088;51.214;6.786;2023-09-19T23:24:45;9.10;;;5.13;;
26838;SDS011;40088;51.214;6.786;2023-09-19T23:34:49;6.32;;;2.35;;
26838;SDS011;40088;51.214;6.786;2023-09-19T23:44:50;5.27;;;2.53;;
26838;SDS011;40088;51.214;6.786;2023-09-19T23:54:51;8.77;;;3.17;;
